createdAt,value
2019-06-26T00:00:26.337Z,0.00
2019-06-26T00:01:26.319Z,0.00
2019-06-26T00:02:26.295Z,0.00
2019-06-26T00:03:26.336Z,0.00
2019-06-26T00:04:26.294Z,0.00
2019-06-26T00:05:26.270Z,0.00
2019-06-26T00:06:26.256Z,0.00
2019-06-26T00:07:26.253Z,0.00
2019-06-26T00:08:26.251Z,0.00
2019-06-26T00:09:26.250Z,0.00
2019-06-26T00:10:26.218Z,0.00
2019-06-26T00:11:26.204Z,0.00
2019-06-26T00:12:26.200Z,0.00
2019-06-26T00:13:27.044Z,0.00
2019-06-26T00:14:26.186Z,0.00
2019-06-26T00:15:26.166Z,0.00
2019-06-26T00:16:26.186Z,0.00
2019-06-26T00:17:26.138Z,0.00
2019-06-26T00:18:26.143Z,0.00
2019-06-26T00:19:26.109Z,0.00
2019-06-26T00:20:26.108Z,0.00
2019-06-26T00:21:26.108Z,0.00
2019-06-26T00:22:26.111Z,0.00
2019-06-26T00:23:26.089Z,0.00
2019-06-26T00:24:26.065Z,0.00
2019-06-26T00:25:26.047Z,0.00
2019-06-26T00:26:26.088Z,0.00
2019-06-26T00:27:26.041Z,0.00
2019-06-26T00:28:26.032Z,0.00
2019-06-26T00:29:26.019Z,0.00
2019-06-26T00:30:25.998Z,0.00
2019-06-26T00:31:25.989Z,0.00
2019-06-26T00:32:26.000Z,0.00
2019-06-26T00:33:25.980Z,0.00
2019-06-26T00:34:25.971Z,0.00
2019-06-26T00:35:25.950Z,0.00
2019-06-26T00:36:25.949Z,0.00
2019-06-26T00:37:25.963Z,0.00
2019-06-26T00:38:25.917Z,0.00
2019-06-26T00:39:25.909Z,0.00
2019-06-26T00:40:25.892Z,0.00
2019-06-26T00:41:25.893Z,0.00
2019-06-26T00:42:25.868Z,0.00
2019-06-26T00:43:38.503Z,0.00
2019-06-26T00:44:26.911Z,0.00
2019-06-26T00:45:25.842Z,0.00
2019-06-26T00:46:25.837Z,0.00
2019-06-26T00:47:25.845Z,0.00
2019-06-26T00:48:25.813Z,0.00
2019-06-26T00:49:25.807Z,0.00
2019-06-26T00:50:25.793Z,0.00
2019-06-26T00:51:25.778Z,0.00
2019-06-26T00:52:25.758Z,0.00
2019-06-26T00:53:25.762Z,0.00
2019-06-26T00:54:25.762Z,0.00
2019-06-26T00:55:25.730Z,0.00
2019-06-26T00:56:25.714Z,0.00
2019-06-26T00:57:25.719Z,0.00
2019-06-26T00:58:25.702Z,0.00
2019-06-26T00:59:25.738Z,0.00
2019-06-26T01:00:25.694Z,0.00
2019-06-26T01:01:25.663Z,0.00
2019-06-26T01:02:25.661Z,0.00
2019-06-26T01:03:25.652Z,0.00
2019-06-26T01:04:25.632Z,0.00
2019-06-26T01:05:25.641Z,0.00
2019-06-26T01:06:25.619Z,0.00
2019-06-26T01:07:25.592Z,0.00
2019-06-26T01:08:25.602Z,0.00
2019-06-26T01:09:25.591Z,0.00
2019-06-26T01:10:25.573Z,0.00
2019-06-26T01:11:25.573Z,0.00
2019-06-26T01:12:25.556Z,0.00
2019-06-26T01:13:25.540Z,0.00
2019-06-26T01:14:25.532Z,0.00
2019-06-26T01:15:25.510Z,0.00
2019-06-26T01:16:25.512Z,0.00
2019-06-26T01:17:25.504Z,0.00
2019-06-26T01:18:25.485Z,0.00
2019-06-26T01:19:25.486Z,0.00
2019-06-26T01:20:25.462Z,0.00
2019-06-26T01:21:25.483Z,0.00
2019-06-26T01:22:25.446Z,0.00
2019-06-26T01:23:25.464Z,0.00
2019-06-26T01:24:25.423Z,0.00
2019-06-26T01:25:25.413Z,0.00
2019-06-26T01:26:25.417Z,0.00
2019-06-26T01:27:25.396Z,0.00
2019-06-26T01:28:25.371Z,0.00
2019-06-26T01:29:25.370Z,0.00
2019-06-26T01:30:25.354Z,0.00
2019-06-26T01:31:25.385Z,0.00
2019-06-26T01:32:25.335Z,0.00
2019-06-26T01:33:25.326Z,0.00
2019-06-26T01:34:25.373Z,0.00
2019-06-26T01:35:25.305Z,0.00
2019-06-26T01:36:25.296Z,0.00
2019-06-26T01:37:25.293Z,0.00
2019-06-26T01:38:25.304Z,0.00
2019-06-26T01:39:25.269Z,0.00
2019-06-26T01:40:25.243Z,0.00
2019-06-26T01:41:25.245Z,0.00
2019-06-26T01:42:25.223Z,0.00
2019-06-26T01:43:25.225Z,0.00
2019-06-26T01:44:25.237Z,0.00
2019-06-26T01:45:25.248Z,0.00
2019-06-26T01:46:25.185Z,0.00
2019-06-26T01:47:25.172Z,0.00
2019-06-26T01:48:25.186Z,0.00
2019-06-26T01:49:25.158Z,0.00
2019-06-26T01:50:25.137Z,0.00
2019-06-26T01:51:25.131Z,0.00
2019-06-26T01:52:25.113Z,0.00
2019-06-26T01:53:25.135Z,0.00
2019-06-26T01:54:25.111Z,0.00
2019-06-26T01:55:25.096Z,0.00
2019-06-26T01:56:25.090Z,0.00
2019-06-26T01:57:25.073Z,0.00
2019-06-26T01:58:25.059Z,0.00
2019-06-26T01:59:25.067Z,0.00
2019-06-26T02:00:25.070Z,0.00
2019-06-26T02:01:25.025Z,0.00
2019-06-26T02:02:25.017Z,0.00
2019-06-26T02:03:25.006Z,0.00
2019-06-26T02:04:25.037Z,0.00
2019-06-26T02:05:24.989Z,0.00
2019-06-26T02:06:24.967Z,0.00
2019-06-26T02:07:24.970Z,0.00
2019-06-26T02:08:24.949Z,0.00
2019-06-26T02:09:24.969Z,0.00
2019-06-26T02:10:24.936Z,0.00
2019-06-26T02:11:24.927Z,0.00
2019-06-26T02:12:24.922Z,0.00
2019-06-26T02:13:24.902Z,0.00
2019-06-26T02:14:30.950Z,0.00
2019-06-26T02:15:25.876Z,0.00
2019-06-26T02:16:24.887Z,0.00
2019-06-26T02:17:24.856Z,0.00
2019-06-26T02:18:24.849Z,0.00
2019-06-26T02:19:24.835Z,0.00
2019-06-26T02:20:24.826Z,0.00
2019-06-26T02:21:24.838Z,0.00
2019-06-26T02:22:24.834Z,0.00
2019-06-26T02:23:24.786Z,0.00
2019-06-26T02:24:24.793Z,0.00
2019-06-26T02:25:24.806Z,0.00
2019-06-26T02:26:24.786Z,0.00
2019-06-26T02:27:24.746Z,0.00
2019-06-26T02:28:24.739Z,0.00
2019-06-26T02:29:24.727Z,0.00
2019-06-26T02:30:24.731Z,4.00
2019-06-26T02:31:24.712Z,4.00
2019-06-26T02:32:24.713Z,4.00
2019-06-26T02:33:24.736Z,0.00
2019-06-26T02:34:24.683Z,0.00
2019-06-26T02:35:24.656Z,4.00
2019-06-26T02:36:24.668Z,4.00
2019-06-26T02:37:24.658Z,4.00
2019-06-26T02:38:24.650Z,4.00
2019-06-26T02:39:24.629Z,4.00
2019-06-26T02:40:24.605Z,4.00
2019-06-26T02:41:24.610Z,8.00
2019-06-26T02:42:24.599Z,8.00
2019-06-26T02:43:24.590Z,8.00
2019-06-26T02:44:24.581Z,12.00
2019-06-26T02:45:24.550Z,12.00
2019-06-26T02:46:24.558Z,12.00
2019-06-26T02:47:24.573Z,16.00
2019-06-26T02:48:24.566Z,16.00
2019-06-26T02:49:24.523Z,16.00
2019-06-26T02:50:24.506Z,20.00
2019-06-26T02:51:24.497Z,24.00
2019-06-26T02:52:24.491Z,24.00
2019-06-26T02:53:24.480Z,28.00
2019-06-26T02:54:24.490Z,32.00
2019-06-26T02:55:24.447Z,36.00
2019-06-26T02:56:24.439Z,40.00
2019-06-26T02:57:24.423Z,44.00
2019-06-26T02:58:24.419Z,48.00
2019-06-26T02:59:24.417Z,56.00
2019-06-26T03:00:24.397Z,64.00
2019-06-26T03:01:24.412Z,72.00
2019-06-26T03:02:24.398Z,76.00
2019-06-26T03:03:24.362Z,88.00
2019-06-26T03:04:24.385Z,96.00
2019-06-26T03:05:24.342Z,104.00
2019-06-26T03:06:24.341Z,116.00
2019-06-26T03:07:24.354Z,124.00
2019-06-26T03:08:24.339Z,132.00
2019-06-26T03:09:24.302Z,148.00
2019-06-26T03:10:24.303Z,160.00
2019-06-26T03:11:24.290Z,172.00
2019-06-26T03:12:24.260Z,188.00
2019-06-26T03:13:24.259Z,204.00
2019-06-26T03:14:24.268Z,216.00
2019-06-26T03:15:24.239Z,232.00
2019-06-26T03:16:24.248Z,252.00
2019-06-26T03:17:24.212Z,268.00
2019-06-26T03:18:24.212Z,284.00
2019-06-26T03:19:24.189Z,304.00
2019-06-26T03:20:24.199Z,324.00
2019-06-26T03:21:24.177Z,344.00
2019-06-26T03:22:24.163Z,364.00
2019-06-26T03:23:24.163Z,388.00
2019-06-26T03:24:24.139Z,408.00
2019-06-26T03:25:24.141Z,432.00
2019-06-26T03:26:24.141Z,452.00
2019-06-26T03:27:24.100Z,476.00
2019-06-26T03:28:24.111Z,500.00
2019-06-26T03:29:24.084Z,524.00
2019-06-26T03:30:24.242Z,552.00
2019-06-26T03:31:24.068Z,576.00
2019-06-26T03:32:24.058Z,604.00
2019-06-26T03:33:24.056Z,628.00
2019-06-26T03:34:24.041Z,656.00
2019-06-26T03:35:24.033Z,680.00
2019-06-26T03:36:24.040Z,708.00
2019-06-26T03:37:24.002Z,740.00
2019-06-26T03:38:24.006Z,772.00
2019-06-26T03:39:23.979Z,800.00
2019-06-26T03:40:23.966Z,832.00
2019-06-26T03:41:24.020Z,864.00
2019-06-26T03:42:23.961Z,896.00
2019-06-26T03:43:23.952Z,924.00
2019-06-26T03:44:23.929Z,960.00
2019-06-26T03:45:26.298Z,992.00
2019-06-26T03:46:23.935Z,1020.00
2019-06-26T03:47:23.912Z,1052.00
2019-06-26T03:48:23.878Z,1084.00
2019-06-26T03:49:23.876Z,1116.00
2019-06-26T03:50:23.860Z,1148.00
2019-06-26T03:51:23.859Z,1184.00
2019-06-26T03:52:23.865Z,1216.00
2019-06-26T03:53:23.833Z,1256.00
2019-06-26T03:54:23.813Z,1292.00
2019-06-26T03:55:23.804Z,1328.00
2019-06-26T03:56:23.804Z,1360.00
2019-06-26T03:57:23.790Z,1396.00
2019-06-26T03:58:23.792Z,1432.00
2019-06-26T03:59:23.786Z,1468.00
2019-06-26T04:00:23.784Z,1500.00
2019-06-26T04:01:23.745Z,1540.00
2019-06-26T04:02:23.735Z,1580.00
2019-06-26T04:03:23.771Z,1620.00
2019-06-26T04:04:23.724Z,1652.00
2019-06-26T04:05:25.154Z,1688.00
2019-06-26T04:06:23.693Z,1724.00
2019-06-26T04:07:23.683Z,1752.00
2019-06-26T04:08:23.664Z,1792.00
2019-06-26T04:09:23.680Z,1828.00
2019-06-26T04:10:23.658Z,1868.00
2019-06-26T04:11:23.634Z,1908.00
2019-06-26T04:12:23.636Z,1944.00
2019-06-26T04:13:23.616Z,1980.00
2019-06-26T04:14:23.612Z,2020.00
2019-06-26T04:15:23.625Z,2056.00
2019-06-26T04:16:23.573Z,2088.00
2019-06-26T04:17:23.571Z,2128.00
2019-06-26T04:18:23.557Z,2156.00
2019-06-26T04:19:23.554Z,2200.00
2019-06-26T04:20:23.548Z,2236.00
2019-06-26T04:21:23.545Z,2272.00
2019-06-26T04:22:23.524Z,2308.00
2019-06-26T04:23:23.580Z,2340.00
2019-06-26T04:24:23.503Z,2384.00
2019-06-26T04:25:23.505Z,2424.00
2019-06-26T04:26:23.498Z,2456.00
2019-06-26T04:27:23.464Z,2500.00
2019-06-26T04:28:24.546Z,2540.00
2019-06-26T04:29:23.432Z,2580.00
2019-06-26T04:30:23.457Z,2616.00
2019-06-26T04:31:23.435Z,2652.00
2019-06-26T04:32:23.436Z,2688.00
2019-06-26T04:33:23.396Z,2728.00
2019-06-26T04:34:23.385Z,2764.00
2019-06-26T04:35:23.379Z,2808.00
2019-06-26T04:36:23.362Z,2852.00
2019-06-26T04:37:23.373Z,2892.00
2019-06-26T04:38:23.345Z,2944.00
2019-06-26T04:39:23.347Z,2984.00
2019-06-26T04:40:23.328Z,3024.00
2019-06-26T04:41:23.306Z,3060.00
2019-06-26T04:42:23.323Z,3096.00
2019-06-26T04:43:24.115Z,3124.00
2019-06-26T04:44:23.283Z,3172.00
2019-06-26T04:45:23.274Z,3212.00
2019-06-26T04:46:23.263Z,3252.00
2019-06-26T04:47:23.252Z,3288.00
2019-06-26T04:48:23.259Z,3332.00
2019-06-26T04:49:23.253Z,3380.00
2019-06-26T04:50:23.206Z,3420.00
2019-06-26T04:51:23.216Z,3448.00
2019-06-26T04:52:23.206Z,3488.00
2019-06-26T04:53:23.177Z,3536.00
2019-06-26T04:54:23.191Z,3576.00
2019-06-26T04:55:24.135Z,3608.00
2019-06-26T04:56:23.481Z,3656.00
2019-06-26T04:57:23.854Z,3676.00
2019-06-26T04:58:23.254Z,3712.00
2019-06-26T04:59:24.954Z,3744.00
2019-06-26T05:00:27.005Z,3764.00
2019-06-26T05:01:25.992Z,3816.00
2019-06-26T05:02:24.102Z,3812.00
2019-06-26T05:03:23.090Z,3876.00
2019-06-26T05:04:23.081Z,3884.00
2019-06-26T05:05:38.202Z,3928.00
2019-06-26T05:06:24.075Z,3972.00
2019-06-26T05:07:23.028Z,3992.00
2019-06-26T05:08:23.030Z,4020.00
2019-06-26T05:09:23.027Z,4012.00
2019-06-26T05:10:23.032Z,4068.00
2019-06-26T05:11:23.011Z,4092.00
2019-06-26T05:12:23.012Z,4120.00
2019-06-26T05:13:22.988Z,4156.00
2019-06-26T05:14:23.407Z,4204.00
2019-06-26T05:15:22.960Z,4252.00
2019-06-26T05:16:22.976Z,4308.00
2019-06-26T05:17:22.944Z,4328.00
2019-06-26T05:18:22.923Z,4360.00
2019-06-26T05:19:22.897Z,4384.00
2019-06-26T05:20:22.885Z,4452.00
2019-06-26T05:21:22.922Z,4480.00
2019-06-26T05:22:22.914Z,4496.00
2019-06-26T05:23:22.856Z,4544.00
2019-06-26T05:24:22.898Z,4600.00
2019-06-26T05:25:22.837Z,4684.00
2019-06-26T05:26:22.847Z,4668.00
2019-06-26T05:27:22.834Z,4716.00
2019-06-26T05:28:22.809Z,4768.00
2019-06-26T05:29:22.808Z,4800.00
2019-06-26T05:30:22.786Z,4844.00
2019-06-26T05:31:22.795Z,4892.00
2019-06-26T05:32:22.790Z,4928.00
2019-06-26T05:33:22.750Z,5016.00
2019-06-26T05:34:22.790Z,5044.00
2019-06-26T05:35:22.727Z,5096.00
2019-06-26T05:36:22.730Z,5156.00
2019-06-26T05:37:22.709Z,5228.00
2019-06-26T05:38:22.722Z,5272.00
2019-06-26T05:39:22.688Z,5360.00
2019-06-26T05:40:22.697Z,5360.00
2019-06-26T05:41:22.660Z,5568.00
2019-06-26T05:42:22.656Z,7264.00
2019-06-26T05:43:22.667Z,6984.00
2019-06-26T05:44:22.629Z,10388.00
2019-06-26T05:45:22.628Z,11156.00
2019-06-26T05:46:30.871Z,11188.00
2019-06-26T05:47:23.598Z,10312.00
2019-06-26T05:48:22.618Z,10240.00
2019-06-26T05:49:22.608Z,10756.00
2019-06-26T05:50:22.568Z,12036.00
2019-06-26T05:51:22.565Z,12332.00
2019-06-26T05:52:22.555Z,12556.00
2019-06-26T05:53:22.548Z,12580.00
2019-06-26T05:54:22.541Z,12692.00
2019-06-26T05:55:22.536Z,12640.00
2019-06-26T05:56:22.531Z,12516.00
2019-06-26T05:57:22.504Z,12532.00
2019-06-26T05:58:22.480Z,12324.00
2019-06-26T05:59:22.470Z,11936.00
2019-06-26T06:00:22.460Z,12616.00
2019-06-26T06:01:22.449Z,11668.00
2019-06-26T06:02:22.459Z,10600.00
2019-06-26T06:03:22.431Z,8760.00
2019-06-26T06:04:22.570Z,7428.00
2019-06-26T06:05:22.452Z,6992.00
2019-06-26T06:06:22.484Z,6820.00
2019-06-26T06:07:22.863Z,6504.00
2019-06-26T06:08:23.362Z,6512.00
2019-06-26T06:09:23.466Z,6532.00
2019-06-26T06:10:22.767Z,6552.00
2019-06-26T06:11:22.359Z,6600.00
2019-06-26T06:12:22.377Z,6708.00
2019-06-26T06:13:22.330Z,6832.00
2019-06-26T06:14:22.312Z,6800.00
2019-06-26T06:15:22.316Z,6780.00
2019-06-26T06:16:22.316Z,6868.00
2019-06-26T06:17:22.941Z,6940.00
2019-06-26T06:18:23.532Z,6840.00
2019-06-26T06:19:22.484Z,6928.00
2019-06-26T06:20:22.283Z,6956.00
2019-06-26T06:21:22.247Z,6992.00
2019-06-26T06:22:22.709Z,7036.00
2019-06-26T06:23:22.229Z,7136.00
2019-06-26T06:24:22.319Z,7104.00
2019-06-26T06:25:22.429Z,7216.00
2019-06-26T06:26:22.438Z,7164.00
2019-06-26T06:27:22.518Z,7196.00
2019-06-26T06:28:22.231Z,7192.00
2019-06-26T06:29:22.181Z,7228.00
2019-06-26T06:30:22.173Z,7192.00
2019-06-26T06:31:23.075Z,7240.00
2019-06-26T06:32:22.120Z,7272.00
2019-06-26T06:33:22.792Z,7296.00
2019-06-26T06:34:22.133Z,7300.00
2019-06-26T06:35:22.462Z,7352.00
2019-06-26T06:36:22.184Z,7452.00
2019-06-26T06:37:22.403Z,7444.00
2019-06-26T06:38:22.077Z,7468.00
2019-06-26T06:39:22.062Z,7532.00
2019-06-26T06:40:22.054Z,7568.00
2019-06-26T06:41:22.037Z,7640.00
2019-06-26T06:42:22.014Z,7784.00
2019-06-26T06:43:22.023Z,8212.00
2019-06-26T06:44:22.024Z,7968.00
2019-06-26T06:45:21.984Z,7956.00
2019-06-26T06:46:22.007Z,7972.00
2019-06-26T06:47:21.962Z,7980.00
2019-06-26T06:48:21.953Z,8008.00
2019-06-26T06:49:21.961Z,7948.00
2019-06-26T06:50:21.929Z,7908.00
2019-06-26T06:51:21.962Z,8044.00
2019-06-26T06:52:21.913Z,8020.00
2019-06-26T06:53:21.903Z,7964.00
2019-06-26T06:54:21.935Z,8148.00
2019-06-26T06:55:21.882Z,8064.00
2019-06-26T06:56:21.885Z,8100.00
2019-06-26T06:57:21.863Z,8168.00
2019-06-26T06:58:21.850Z,8224.00
2019-06-26T06:59:21.873Z,8100.00
2019-06-26T07:00:21.831Z,8288.00
2019-06-26T07:01:21.835Z,8080.00
2019-06-26T07:02:21.812Z,8076.00
2019-06-26T07:03:21.793Z,8060.00
2019-06-26T07:04:21.793Z,7996.00
2019-06-26T07:05:21.774Z,8020.00
2019-06-26T07:06:21.763Z,8060.00
2019-06-26T07:07:21.765Z,8004.00
2019-06-26T07:08:21.742Z,7932.00
2019-06-26T07:09:21.727Z,8004.00
2019-06-26T07:10:21.724Z,8148.00
2019-06-26T07:11:21.717Z,8092.00
2019-06-26T07:12:21.765Z,8328.00
2019-06-26T07:13:21.685Z,8256.00
2019-06-26T07:14:21.687Z,8356.00
2019-06-26T07:15:21.687Z,8564.00
2019-06-26T07:16:21.661Z,8444.00
2019-06-26T07:17:21.686Z,8512.00
2019-06-26T07:18:21.636Z,8560.00
2019-06-26T07:19:21.657Z,8868.00
2019-06-26T07:20:21.618Z,8720.00
2019-06-26T07:21:21.604Z,8584.00
2019-06-26T07:22:21.594Z,8524.00
2019-06-26T07:23:21.584Z,8668.00
2019-06-26T07:24:21.575Z,8744.00
2019-06-26T07:25:21.598Z,8916.00
2019-06-26T07:26:21.556Z,8996.00
2019-06-26T07:27:21.544Z,9084.00
2019-06-26T07:28:21.621Z,8952.00
2019-06-26T07:29:21.525Z,9256.00
2019-06-26T07:30:21.568Z,9360.00
2019-06-26T07:31:21.498Z,9580.00
2019-06-26T07:32:21.502Z,9584.00
2019-06-26T07:33:21.507Z,9532.00
2019-06-26T07:34:21.521Z,9644.00
2019-06-26T07:35:21.465Z,9552.00
2019-06-26T07:36:21.546Z,9792.00
2019-06-26T07:37:21.444Z,9736.00
2019-06-26T07:38:21.428Z,9980.00
2019-06-26T07:39:21.498Z,10064.00
2019-06-26T07:40:21.436Z,10156.00
2019-06-26T07:41:21.418Z,9976.00
2019-06-26T07:42:21.397Z,9992.00
2019-06-26T07:43:21.404Z,9796.00
2019-06-26T07:44:21.366Z,9784.00
2019-06-26T07:45:24.040Z,9804.00
2019-06-26T07:46:21.361Z,10488.00
2019-06-26T07:47:23.495Z,9708.00
2019-06-26T07:48:22.326Z,9556.00
2019-06-26T07:49:21.309Z,9588.00
2019-06-26T07:50:21.297Z,9556.00
2019-06-26T07:51:21.331Z,9424.00
2019-06-26T07:52:21.347Z,9528.00
2019-06-26T07:53:22.348Z,9752.00
2019-06-26T07:54:21.270Z,9416.00
2019-06-26T07:55:21.258Z,9556.00
2019-06-26T07:56:21.249Z,9368.00
2019-06-26T07:57:21.254Z,9336.00
2019-06-26T07:58:21.216Z,9704.00
2019-06-26T07:59:21.200Z,9348.00
2019-06-26T08:00:21.246Z,9224.00
2019-06-26T08:01:21.181Z,9416.00
2019-06-26T08:02:21.174Z,9592.00
2019-06-26T08:03:21.200Z,9608.00
2019-06-26T08:04:21.169Z,9984.00
2019-06-26T08:05:21.519Z,9776.00
2019-06-26T08:06:21.542Z,9832.00
2019-06-26T08:07:21.645Z,9768.00
2019-06-26T08:08:21.682Z,10064.00
2019-06-26T08:09:21.096Z,10148.00
2019-06-26T08:10:21.088Z,10108.00
2019-06-26T08:11:21.078Z,9892.00
2019-06-26T08:12:21.070Z,9760.00
2019-06-26T08:13:21.153Z,10016.00
2019-06-26T08:14:21.280Z,9884.00
2019-06-26T08:15:21.052Z,9936.00
2019-06-26T08:16:21.032Z,9824.00
2019-06-26T08:17:21.022Z,9980.00
2019-06-26T08:18:21.015Z,10016.00
2019-06-26T08:19:20.991Z,9944.00
2019-06-26T08:20:21.031Z,9996.00
2019-06-26T08:21:20.975Z,9988.00
2019-06-26T08:22:20.980Z,10032.00
2019-06-26T08:23:20.949Z,10220.00
2019-06-26T08:24:20.944Z,10464.00
2019-06-26T08:25:20.954Z,10588.00
2019-06-26T08:26:20.923Z,10708.00
2019-06-26T08:27:20.927Z,11092.00
2019-06-26T08:28:20.941Z,12964.00
2019-06-26T08:29:20.955Z,13032.00
2019-06-26T08:30:20.919Z,26848.00
2019-06-26T08:31:21.046Z,25536.00
2019-06-26T08:32:20.938Z,23808.00
2019-06-26T08:33:20.842Z,37600.00
2019-06-26T08:34:20.899Z,55488.00
2019-06-26T08:35:20.893Z,62176.00
2019-06-26T08:36:20.844Z,59808.00
2019-06-26T08:37:20.865Z,63808.00
2019-06-26T08:38:20.805Z,63200.00
2019-06-26T08:39:20.799Z,62112.00
2019-06-26T08:40:20.806Z,62816.00
2019-06-26T08:41:20.778Z,61536.00
2019-06-26T08:42:20.766Z,60320.00
2019-06-26T08:43:20.763Z,64224.00
2019-06-26T08:44:20.734Z,61312.00
2019-06-26T08:45:20.732Z,62144.00
2019-06-26T08:46:20.713Z,64000.00
2019-06-26T08:47:20.720Z,63520.00
2019-06-26T08:48:38.282Z,63904.00
2019-06-26T08:49:26.012Z,68480.00
2019-06-26T08:50:20.681Z,67264.00
2019-06-26T08:51:20.663Z,69632.00
2019-06-26T08:52:20.667Z,69664.00
2019-06-26T08:53:20.662Z,70528.00
2019-06-26T08:54:20.656Z,71424.00
2019-06-26T08:55:20.624Z,70400.00
2019-06-26T08:56:20.639Z,70048.00
2019-06-26T08:57:20.627Z,70208.00
2019-06-26T08:58:20.599Z,69888.00
2019-06-26T08:59:20.601Z,69792.00
2019-06-26T09:00:20.608Z,70048.00
2019-06-26T09:01:20.582Z,69728.00
2019-06-26T09:02:20.576Z,71936.00
2019-06-26T09:03:20.544Z,71808.00
2019-06-26T09:04:20.546Z,70944.00
2019-06-26T09:05:20.569Z,68672.00
2019-06-26T09:06:20.526Z,67872.00
2019-06-26T09:07:20.514Z,66624.00
2019-06-26T09:08:20.552Z,64288.00
2019-06-26T09:09:20.511Z,67488.00
2019-06-26T09:10:20.493Z,70400.00
2019-06-26T09:11:20.497Z,71360.00
2019-06-26T09:12:20.466Z,73760.00
2019-06-26T09:13:20.459Z,75264.00
2019-06-26T09:14:20.460Z,79104.00
2019-06-26T09:15:20.439Z,74624.00
2019-06-26T09:16:21.455Z,75392.00
2019-06-26T09:17:20.424Z,75840.00
2019-06-26T09:18:34.362Z,76032.00
2019-06-26T09:19:21.421Z,73952.00
2019-06-26T09:20:20.383Z,73088.00
2019-06-26T09:21:20.390Z,75904.00
2019-06-26T09:22:20.389Z,75584.00
2019-06-26T09:23:20.394Z,71168.00
2019-06-26T09:24:20.348Z,75328.00
2019-06-26T09:25:22.460Z,79328.00
2019-06-26T09:26:20.354Z,77536.00
2019-06-26T09:27:20.319Z,74112.00
2019-06-26T09:28:20.326Z,77408.00
2019-06-26T09:29:23.688Z,75136.00
2019-06-26T09:30:20.320Z,72096.00
2019-06-26T09:31:20.317Z,76512.00
2019-06-26T09:32:20.309Z,74048.00
2019-06-26T09:33:20.279Z,76608.00
2019-06-26T09:34:20.259Z,78528.00
2019-06-26T09:35:20.250Z,75904.00
2019-06-26T09:36:21.084Z,79296.00
2019-06-26T09:37:20.249Z,81888.00
2019-06-26T09:38:20.247Z,83008.00
2019-06-26T09:39:20.245Z,82848.00
2019-06-26T09:40:20.243Z,82240.00
2019-06-26T09:41:20.217Z,79392.00
2019-06-26T09:42:20.191Z,79104.00
2019-06-26T09:43:20.224Z,73984.00
2019-06-26T09:44:20.186Z,75328.00
2019-06-26T09:45:20.176Z,73536.00
2019-06-26T09:46:21.253Z,71776.00
2019-06-26T09:47:20.150Z,75456.00
2019-06-26T09:48:20.155Z,76416.00
2019-06-26T09:49:20.133Z,80608.00
2019-06-26T09:50:20.273Z,78208.00
2019-06-26T09:51:20.135Z,79456.00
2019-06-26T09:52:20.106Z,79936.00
2019-06-26T09:53:20.142Z,78240.00
2019-06-26T09:54:20.088Z,81632.00
2019-06-26T09:55:20.081Z,83232.00
2019-06-26T09:56:20.080Z,84256.00
2019-06-26T09:57:20.059Z,85728.00
2019-06-26T09:58:20.047Z,85984.00
2019-06-26T09:59:20.038Z,85088.00
2019-06-26T10:00:20.033Z,86592.00
2019-06-26T10:01:20.041Z,86976.00
2019-06-26T10:02:20.012Z,83712.00
2019-06-26T10:03:20.021Z,83840.00
2019-06-26T10:04:20.002Z,88896.00
2019-06-26T10:05:20.196Z,85824.00
2019-06-26T10:06:20.022Z,82176.00
2019-06-26T10:07:20.047Z,83712.00
2019-06-26T10:08:19.972Z,85312.00
2019-06-26T10:09:20.047Z,83904.00
2019-06-26T10:10:19.949Z,83104.00
2019-06-26T10:11:21.379Z,82880.00
2019-06-26T10:12:20.317Z,82368.00
2019-06-26T10:13:19.934Z,80896.00
2019-06-26T10:14:19.932Z,79936.00
2019-06-26T10:15:19.931Z,81376.00
2019-06-26T10:16:19.898Z,81504.00
2019-06-26T10:17:19.873Z,84800.00
2019-06-26T10:18:19.899Z,82464.00
2019-06-26T10:19:20.511Z,81280.00
2019-06-26T10:20:20.020Z,81984.00
2019-06-26T10:21:23.509Z,80800.00
2019-06-26T10:22:19.820Z,81504.00
2019-06-26T10:23:19.822Z,84512.00
2019-06-26T10:24:19.819Z,83520.00
2019-06-26T10:25:19.832Z,76928.00
2019-06-26T10:26:19.799Z,76736.00
2019-06-26T10:27:19.791Z,68192.00
2019-06-26T10:28:20.409Z,32640.00
2019-06-26T10:29:20.186Z,15168.00
2019-06-26T10:30:19.913Z,14888.00
2019-06-26T10:31:20.085Z,14812.00
2019-06-26T10:32:20.195Z,14844.00
2019-06-26T10:33:20.197Z,14480.00
2019-06-26T10:34:20.579Z,14300.00
2019-06-26T10:35:19.947Z,14508.00
2019-06-26T10:36:23.516Z,14524.00
2019-06-26T10:37:19.935Z,14432.00
2019-06-26T10:38:19.795Z,14332.00
2019-06-26T10:39:20.477Z,14240.00
2019-06-26T10:40:20.989Z,14580.00
2019-06-26T10:41:20.422Z,14868.00
2019-06-26T10:42:19.908Z,14932.00
2019-06-26T10:43:19.800Z,15084.00
2019-06-26T10:44:19.754Z,15220.00
2019-06-26T10:45:19.920Z,14764.00
2019-06-26T10:46:19.855Z,14720.00
2019-06-26T10:47:19.994Z,14908.00
2019-06-26T10:48:19.623Z,14960.00
2019-06-26T10:49:26.804Z,15100.00
2019-06-26T10:50:20.586Z,15144.00
2019-06-26T10:51:19.582Z,16416.00
2019-06-26T10:52:19.571Z,15276.00
2019-06-26T10:53:19.581Z,27456.00
2019-06-26T10:54:19.525Z,66528.00
2019-06-26T10:55:19.544Z,19264.00
2019-06-26T10:56:19.536Z,36736.00
2019-06-26T10:57:19.495Z,78496.00
2019-06-26T10:58:19.493Z,84608.00
2019-06-26T10:59:19.500Z,89728.00
2019-06-26T11:00:19.488Z,90592.00
2019-06-26T11:01:19.526Z,87936.00
2019-06-26T11:02:19.908Z,85440.00
2019-06-26T11:03:19.997Z,85888.00
2019-06-26T11:04:20.041Z,90624.00
2019-06-26T11:05:19.795Z,93696.00
2019-06-26T11:06:19.663Z,90176.00
2019-06-26T11:07:19.680Z,86976.00
2019-06-26T11:08:20.929Z,81152.00
2019-06-26T11:09:19.396Z,77760.00
2019-06-26T11:10:19.403Z,81664.00
2019-06-26T11:11:19.365Z,81504.00
2019-06-26T11:12:20.015Z,73280.00
2019-06-26T11:13:19.376Z,69664.00
2019-06-26T11:14:19.397Z,73088.00
2019-06-26T11:15:19.988Z,78720.00
2019-06-26T11:16:19.769Z,78720.00
2019-06-26T11:17:19.598Z,82496.00
2019-06-26T11:18:19.425Z,85312.00
2019-06-26T11:19:19.829Z,84896.00
2019-06-26T11:20:19.336Z,85344.00
2019-06-26T11:21:20.087Z,87104.00
2019-06-26T11:22:19.694Z,86336.00
2019-06-26T11:23:19.595Z,84096.00
2019-06-26T11:24:19.436Z,83776.00
2019-06-26T11:25:19.470Z,86176.00
2019-06-26T11:26:19.495Z,91776.00
2019-06-26T11:27:19.402Z,84800.00
2019-06-26T11:28:19.426Z,81440.00
2019-06-26T11:29:19.250Z,87776.00
2019-06-26T11:30:19.198Z,94208.00
2019-06-26T11:31:19.203Z,93408.00
2019-06-26T11:32:19.726Z,89632.00
2019-06-26T11:33:19.760Z,92224.00
2019-06-26T11:34:20.084Z,91968.00
2019-06-26T11:35:19.226Z,88352.00
2019-06-26T11:36:19.178Z,90112.00
2019-06-26T11:37:22.656Z,90432.00
2019-06-26T11:38:19.165Z,89088.00
2019-06-26T11:39:19.124Z,91904.00
2019-06-26T11:40:19.117Z,93216.00
2019-06-26T11:41:19.126Z,90656.00
2019-06-26T11:42:19.093Z,86560.00
2019-06-26T11:43:19.074Z,84608.00
2019-06-26T11:44:19.076Z,85952.00
2019-06-26T11:45:19.075Z,85952.00
2019-06-26T11:46:19.075Z,87584.00
2019-06-26T11:47:19.065Z,85696.00
2019-06-26T11:48:19.049Z,85984.00
2019-06-26T11:49:19.054Z,85024.00
2019-06-26T11:50:20.902Z,85728.00
2019-06-26T11:51:19.466Z,85376.00
2019-06-26T11:52:19.830Z,86944.00
2019-06-26T11:53:19.355Z,85696.00
2019-06-26T11:54:19.250Z,88992.00
2019-06-26T11:55:19.936Z,88192.00
2019-06-26T11:56:19.509Z,85184.00
2019-06-26T11:57:19.916Z,84224.00
2019-06-26T11:58:19.090Z,87040.00
2019-06-26T11:59:20.181Z,87840.00
2019-06-26T12:00:19.430Z,83200.00
2019-06-26T12:01:19.524Z,81664.00
2019-06-26T12:02:19.319Z,86144.00
2019-06-26T12:03:19.254Z,82528.00
2019-06-26T12:04:19.149Z,83264.00
2019-06-26T12:05:19.133Z,87872.00
2019-06-26T12:06:19.765Z,87712.00
2019-06-26T12:07:19.024Z,86048.00
2019-06-26T12:08:19.220Z,87552.00
2019-06-26T12:09:18.965Z,89024.00
2019-06-26T12:10:19.098Z,92704.00
2019-06-26T12:11:19.095Z,87552.00
2019-06-26T12:12:19.071Z,84928.00
2019-06-26T12:13:18.979Z,89728.00
2019-06-26T12:14:18.923Z,83200.00
2019-06-26T12:15:18.864Z,75968.00